Time;durP1;ratioP1;P1;durP2;ratioP2;P2;SDS_P1;SDS_P2;PMS_P1;PMS_P2;Temp;Humidity;BMP_temperature;BMP_pressure;BME280_temperature;BME280_humidity;BME280_pressure;Samples;Min_cycle;Max_cycle;Signal;HPM_P1;HPM_P2
2023/06/19 00:01:11;;;;;;;;;;;24.90;37.80;;;;;;1570883;73;2101;-74
2023/06/19 00:03:13;;;;;;;;;;;24.80;37.80;;;;;;1565771;74;801;-75
2023/06/19 00:05:15;;;;;;;;;;;24.80;37.80;;;;;;1564726;75;1938;-75
2023/06/19 00:07:16;;;;;;;;;;;24.80;37.80;;;;;;1568693;74;772;-74
2023/06/19 00:09:18;;;;;;;;;;;24.80;37.80;;;;;;1572144;75;811;-73
2023/06/19 00:11:20;;;;;;;;;;;24.80;37.70;;;;;;1560691;75;1244;-74
2023/06/19 00:13:22;;;;;;;;;;;24.80;37.70;;;;;;1565401;76;766;-74
2023/06/19 00:15:24;;;;;;;;;;;24.90;37.80;;;;;;1561335;76;950;-73
2023/06/19 00:17:28;;;;;;;;;;;24.80;37.60;;;;;;1561302;76;763;-73
2023/06/19 00:19:30;;;;;;;;;;;24.90;37.80;;;;;;1562561;76;758;-74
2023/06/19 00:21:31;;;;;;;;;;;24.90;37.70;;;;;;1567648;74;1136;-74
2023/06/19 00:23:34;;;;;;;;;;;24.80;37.60;;;;;;1560135;76;785;-75
2023/06/19 00:25:35;;;;;;;;;;;25.00;37.80;;;;;;1565851;76;1931;-75
2023/06/19 00:27:37;;;;;;;;;;;24.80;37.90;;;;;;1563233;76;835;-75
2023/06/19 00:29:39;;;;;;;;;;;24.90;38.00;;;;;;1551659;76;1423;-73
2023/06/19 00:31:41;;;;;;;;;;;24.80;38.00;;;;;;1562217;75;1255;-74
2023/06/19 00:33:44;;;;;;;;;;;24.80;38.10;;;;;;1559723;76;765;-74
2023/06/19 00:35:46;;;;;;;;;;;24.90;37.90;;;;;;1563336;74;784;-74
2023/06/19 00:37:48;;;;;;;;;;;24.80;37.80;;;;;;1566889;76;806;-73
2023/06/19 00:39:49;;;;;;;;;;;24.80;37.90;;;;;;1564943;76;765;-75
2023/06/19 00:41:54;;;;;;;;;;;24.80;38.00;;;;;;1563865;76;1253;-75
2023/06/19 00:43:57;;;;;;;;;;;24.90;38.20;;;;;;1558744;76;777;-72
2023/06/19 00:45:59;;;;;;;;;;;24.80;38.10;;;;;;1565117;76;1932;-75
2023/06/19 00:48:01;;;;;;;;;;;24.80;37.90;;;;;;1556720;76;795;-75
2023/06/19 00:50:02;;;;;;;;;;;24.90;38.00;;;;;;1573434;74;1176;-75
2023/06/19 00:52:05;;;;;;;;;;;24.80;37.90;;;;;;1567004;76;750;-75
2023/06/19 00:54:06;;;;;;;;;;;24.80;37.80;;;;;;1547538;76;769;-74
2023/06/19 00:56:08;;;;;;;;;;;24.90;37.80;;;;;;1553208;76;780;-74
2023/06/19 00:58:10;;;;;;;;;;;24.90;38.00;;;;;;1560561;76;674;-75
2023/06/19 01:00:12;;;;;;;;;;;25.00;37.90;;;;;;1562630;74;1150;-75
2023/06/19 01:02:14;;;;;;;;;;;24.80;37.80;;;;;;1562369;76;779;-75
2023/06/19 01:04:16;;;;;;;;;;;24.90;37.90;;;;;;1562832;76;766;-73
2023/06/19 01:06:21;;;;;;;;;;;24.90;37.80;;;;;;1566537;76;1920;-75
2023/06/19 01:08:25;;;;;;;;;;;24.90;37.80;;;;;;1566810;76;804;-75
2023/06/19 01:10:34;;;;;;;;;;;24.90;37.80;;;;;;1566319;74;1606;-75
2023/06/19 01:12:37;;;;;;;;;;;24.90;37.80;;;;;;1552662;76;1648;-75
2023/06/19 01:14:41;;;;;;;;;;;24.90;37.80;;;;;;1553119;76;777;-75
2023/06/19 01:16:43;;;;;;;;;;;24.80;37.70;;;;;;1565723;76;1055;-76
2023/06/19 01:18:45;;;;;;;;;;;24.90;37.70;;;;;;1574270;74;785;-75
2023/06/19 01:20:47;;;;;;;;;;;24.90;37.80;;;;;;1568872;74;1143;-75
2023/06/19 01:22:48;;;;;;;;;;;24.90;37.80;;;;;;1565487;76;671;-76
2023/06/19 01:24:50;;;;;;;;;;;24.90;37.70;;;;;;1557708;76;816;-75
2023/06/19 01:26:52;;;;;;;;;;;25.00;37.80;;;;;;1559964;76;1947;-75
2023/06/19 01:28:56;;;;;;;;;;;24.90;37.70;;;;;;1554623;76;805;-76
2023/06/19 01:30:57;;;;;;;;;;;24.90;37.80;;;;;;1564212;74;1166;-73
2023/06/19 01:33:00;;;;;;;;;;;24.90;37.70;;;;;;1553744;76;765;-73
2023/06/19 01:35:02;;;;;;;;;;;24.90;37.80;;;;;;1568277;74;739;-74
2023/06/19 01:37:05;;;;;;;;;;;24.90;37.80;;;;;;1566018;76;778;-75
2023/06/19 01:39:07;;;;;;;;;;;24.90;37.80;;;;;;1566247;76;848;-75
2023/06/19 01:41:15;;;;;;;;;;;24.90;38.00;;;;;;1566796;76;1228;-75
2023/06/19 01:43:16;;;;;;;;;;;24.90;38.00;;;;;;1558655;76;666;-75
2023/06/19 01:45:22;;;;;;;;;;;24.90;38.00;;;;;;1566917;76;1944;-75
2023/06/19 01:47:23;;;;;;;;;;;24.90;37.80;;;;;;1563144;76;1708;-74
2023/06/19 01:49:26;;;;;;;;;;;24.90;37.90;;;;;;1568555;74;805;-72
2023/06/19 01:51:27;;;;;;;;;;;24.90;37.80;;;;;;1566167;74;1128;-74
2023/06/19 01:53:31;;;;;;;;;;;24.90;37.90;;;;;;1563005;76;789;-75
2023/06/19 01:55:33;;;;;;;;;;;24.90;38.10;;;;;;1566547;76;1028;-74
2023/06/19 01:57:36;;;;;;;;;;;24.80;38.00;;;;;;1566906;76;763;-75
2023/06/19 01:59:38;;;;;;;;;;;24.80;38.20;;;;;;1561596;76;753;-74
2023/06/19 02:01:39;;;;;;;;;;;24.80;38.20;;;;;;1555819;76;1142;-75
2023/06/19 02:03:41;;;;;;;;;;;24.80;38.20;;;;;;1568856;74;689;-75
2023/06/19 02:05:43;;;;;;;;;;;24.80;38.40;;;;;;1564237;76;1947;-74
2023/06/19 02:07:45;;;;;;;;;;;24.80;38.40;;;;;;1566873;76;778;-75
2023/06/19 02:09:47;;;;;;;;;;;24.80;38.30;;;;;;1561985;76;789;-75
2023/06/19 02:11:49;;;;;;;;;;;24.80;38.40;;;;;;1562618;76;1164;-73
2023/06/19 02:13:51;;;;;;;;;;;24.80;38.40;;;;;;1566152;76;777;-74
2023/06/19 02:15:53;;;;;;;;;;;24.70;38.40;;;;;;1567321;76;788;-74
2023/06/19 02:17:55;;;;;;;;;;;24.70;38.40;;;;;;1559401;74;813;-73
2023/06/19 02:19:57;;;;;;;;;;;24.70;38.60;;;;;;1554311;74;1096;-69
2023/06/19 02:21:59;;;;;;;;;;;24.70;38.40;;;;;;1567198;76;1416;-73
2023/06/19 02:24:01;;;;;;;;;;;24.70;38.40;;;;;;1564603;76;764;-72
2023/06/19 02:26:03;;;;;;;;;;;24.80;38.50;;;;;;1562000;76;1939;-74
2023/06/19 02:28:05;;;;;;;;;;;24.80;38.40;;;;;;1562912;76;773;-73
2023/06/19 02:30:07;;;;;;;;;;;24.80;38.30;;;;;;1560010;74;1217;-74
2023/06/19 02:32:09;;;;;;;;;;;24.80;38.50;;;;;;1566975;74;698;-74
2023/06/19 02:34:11;;;;;;;;;;;24.80;38.50;;;;;;1562743;76;762;-74
2023/06/19 02:36:12;;;;;;;;;;;24.80;38.40;;;;;;1562028;76;763;-72
2023/06/19 02:38:14;;;;;;;;;;;24.80;38.50;;;;;;1554280;76;782;-75
2023/06/19 02:40:16;;;;;;;;;;;24.80;38.40;;;;;;1558990;74;1322;-74
2023/06/19 02:42:18;;;;;;;;;;;24.80;38.80;;;;;;1567484;76;756;-75
2023/06/19 02:44:20;;;;;;;;;;;24.80;38.80;;;;;;1565920;76;814;-74
2023/06/19 02:46:22;;;;;;;;;;;24.80;38.80;;;;;;1567837;76;1926;-74
2023/06/19 02:48:24;;;;;;;;;;;24.80;38.60;;;;;;1568585;74;798;-73
2023/06/19 02:50:26;;;;;;;;;;;24.80;38.80;;;;;;1568425;76;1141;-74
2023/06/19 02:52:27;;;;;;;;;;;24.80;38.70;;;;;;1563930;76;755;-74
2023/06/19 02:54:29;;;;;;;;;;;24.80;38.50;;;;;;1563712;76;777;-74
2023/06/19 02:56:31;;;;;;;;;;;24.80;38.60;;;;;;1560361;76;789;-74
2023/06/19 02:58:34;;;;;;;;;;;24.80;38.60;;;;;;1565414;76;778;-74
2023/06/19 03:00:36;;;;;;;;;;;24.80;38.60;;;;;;1551695;76;1190;-74
2023/06/19 03:02:41;;;;;;;;;;;24.80;38.60;;;;;;1549696;75;858;-74
2023/06/19 03:04:47;;;;;;;;;;;24.80;38.60;;;;;;1538640;76;1639;-75
2023/06/19 03:06:49;;;;;;;;;;;24.80;38.50;;;;;;1550452;76;1933;-75
2023/06/19 03:08:51;;;;;;;;;;;24.80;38.50;;;;;;1549673;76;772;-75
2023/06/19 03:10:53;;;;;;;;;;;24.90;38.50;;;;;;1547634;75;1182;-76
2023/06/19 03:12:55;;;;;;;;;;;24.90;38.50;;;;;;1544644;76;802;-76
2023/06/19 03:14:57;;;;;;;;;;;24.80;38.40;;;;;;1550790;76;685;-72
2023/06/19 03:16:58;;;;;;;;;;;24.80;38.40;;;;;;1553214;75;829;-77
2023/06/19 03:19:01;;;;;;;;;;;24.80;38.40;;;;;;1547700;76;1467;-76
2023/06/19 03:21:02;;;;;;;;;;;24.80;38.30;;;;;;1534328;75;1163;-74
2023/06/19 03:23:04;;;;;;;;;;;24.90;38.30;;;;;;1542611;76;766;-75
2023/06/19 03:25:07;;;;;;;;;;;24.80;38.30;;;;;;1538340;76;769;-75
2023/06/19 03:27:09;;;;;;;;;;;24.80;38.30;;;;;;1542999;76;1940;-76
2023/06/19 03:29:11;;;;;;;;;;;24.90;38.40;;;;;;1550908;76;794;-76
2023/06/19 03:31:12;;;;;;;;;;;24.90;38.50;;;;;;1551238;75;1166;-76
2023/06/19 03:33:14;;;;;;;;;;;24.80;38.40;;;;;;1546995;76;771;-75
2023/06/19 03:35:16;;;;;;;;;;;24.90;38.60;;;;;;1551905;76;775;-75
2023/06/19 03:37:18;;;;;;;;;;;24.80;38.50;;;;;;1551067;76;735;-72
2023/06/19 03:39:20;;;;;;;;;;;24.80;38.50;;;;;;1548464;76;811;-75
2023/06/19 03:41:22;;;;;;;;;;;24.80;38.50;;;;;;1549680;76;1203;-74
2023/06/19 03:43:24;;;;;;;;;;;24.80;38.60;;;;;;1551480;76;727;-74
2023/06/19 03:45:25;;;;;;;;;;;24.80;38.40;;;;;;1558443;75;767;-74
2023/06/19 03:47:27;;;;;;;;;;;24.80;38.40;;;;;;1549943;76;1943;-74
2023/06/19 03:49:29;;;;;;;;;;;24.80;38.50;;;;;;1549388;76;648;-74
2023/06/19 03:51:31;;;;;;;;;;;24.80;38.60;;;;;;1550251;75;1131;-75
2023/06/19 03:53:33;;;;;;;;;;;24.80;38.60;;;;;;1550681;76;770;-76
2023/06/19 03:55:35;;;;;;;;;;;24.90;38.60;;;;;;1551995;76;737;-75
2023/06/19 03:57:37;;;;;;;;;;;24.80;38.60;;;;;;1552080;76;757;-72
2023/06/19 03:59:39;;;;;;;;;;;24.80;38.60;;;;;;1550733;75;768;-74
2023/06/19 04:01:41;;;;;;;;;;;24.80;38.50;;;;;;1554032;75;1416;-75
2023/06/19 04:03:43;;;;;;;;;;;24.80;38.60;;;;;;1546676;76;772;-75
2023/06/19 04:05:45;;;;;;;;;;;24.80;38.40;;;;;;1538335;76;779;-76
2023/06/19 04:07:47;;;;;;;;;;;24.80;38.50;;;;;;1534321;76;1950;-76
2023/06/19 04:09:48;;;;;;;;;;;24.80;38.60;;;;;;1549625;76;715;-75
2023/06/19 04:11:50;;;;;;;;;;;24.80;38.20;;;;;;1533097;75;1239;-76
2023/06/19 04:13:52;;;;;;;;;;;24.90;38.60;;;;;;1537580;76;742;-75
2023/06/19 04:15:54;;;;;;;;;;;24.80;38.20;;;;;;1547930;75;1482;-76
2023/06/19 04:17:56;;;;;;;;;;;24.90;38.20;;;;;;1551879;76;784;-75
2023/06/19 04:19:58;;;;;;;;;;;24.80;38.20;;;;;;1551718;75;1180;-75
2023/06/19 04:22:00;;;;;;;;;;;24.80;38.10;;;;;;1551919;76;795;-75
2023/06/19 04:24:04;;;;;;;;;;;24.80;37.90;;;;;;1551933;76;791;-72
2023/06/19 04:26:05;;;;;;;;;;;24.80;38.10;;;;;;1545508;76;1655;-75
2023/06/19 04:28:07;;;;;;;;;;;24.80;38.50;;;;;;1547650;76;1919;-75
2023/06/19 04:30:09;;;;;;;;;;;24.80;38.50;;;;;;1551918;75;1148;-75
2023/06/19 04:32:11;;;;;;;;;;;24.80;38.70;;;;;;1541517;76;802;-75
2023/06/19 04:34:14;;;;;;;;;;;24.80;38.80;;;;;;1547892;76;743;-75
2023/06/19 04:36:16;;;;;;;;;;;24.80;38.90;;;;;;1546054;76;742;-75
2023/06/19 04:38:18;;;;;;;;;;;24.80;38.80;;;;;;1545007;76;794;-76
2023/06/19 04:40:19;;;;;;;;;;;24.80;38.90;;;;;;1550689;76;1219;-73
2023/06/19 04:42:21;;;;;;;;;;;24.90;38.90;;;;;;1548747;76;756;-75
2023/06/19 04:44:23;;;;;;;;;;;24.90;39.00;;;;;;1553761;75;774;-75
2023/06/19 04:46:25;;;;;;;;;;;24.90;38.70;;;;;;1545067;76;1932;-76
2023/06/19 04:48:27;;;;;;;;;;;24.80;38.50;;;;;;1541775;76;761;-75
2023/06/19 04:50:29;;;;;;;;;;;24.90;38.70;;;;;;1540788;75;1163;-72
2023/06/19 04:52:32;;;;;;;;;;;24.90;39.00;;;;;;1533279;76;780;-71
2023/06/19 04:54:34;;;;;;;;;;;24.80;38.90;;;;;;1537691;76;750;-71
2023/06/19 04:56:36;;;;;;;;;;;24.80;38.50;;;;;;1530168;76;767;-71
2023/06/19 04:58:45;;;;;;;;;;;24.80;38.60;;;;;;1544377;75;805;-72
2023/06/19 05:00:42;;;;;;;;;;;24.80;38.50;;;;;;1549512;75;1563;-72
2023/06/19 05:02:45;;;;;;;;;;;24.80;38.60;;;;;;1554023;75;766;-71
2023/06/19 05:04:47;;;;;;;;;;;24.80;38.50;;;;;;1525420;76;770;-72
2023/06/19 05:06:49;;;;;;;;;;;24.70;38.60;;;;;;1555238;75;1938;-72
2023/06/19 05:08:52;;;;;;;;;;;24.80;38.50;;;;;;1555897;76;809;-71
2023/06/19 05:10:54;;;;;;;;;;;24.70;38.60;;;;;;1535670;76;1468;-71
2023/06/19 05:12:56;;;;;;;;;;;24.70;38.60;;;;;;1576036;74;773;-72
2023/06/19 05:14:58;;;;;;;;;;;24.80;38.50;;;;;;1535712;76;762;-70
2023/06/19 05:17:00;;;;;;;;;;;24.80;38.50;;;;;;1531055;75;789;-71
2023/06/19 05:19:02;;;;;;;;;;;24.80;38.60;;;;;;1569682;76;777;-72
2023/06/19 05:21:03;;;;;;;;;;;24.70;38.60;;;;;;1567474;74;1162;-70
2023/06/19 05:23:06;;;;;;;;;;;24.70;38.70;;;;;;1569458;76;795;-71
2023/06/19 05:25:08;;;;;;;;;;;24.80;39.40;;;;;;1564474;76;764;-73
2023/06/19 05:27:09;;;;;;;;;;;24.70;39.40;;;;;;1565419;76;1923;-70
2023/06/19 05:29:11;;;;;;;;;;;24.70;39.40;;;;;;1566558;74;792;-78
2023/06/19 05:31:13;;;;;;;;;;;24.70;39.40;;;;;;1565828;74;1154;-75
2023/06/19 05:33:15;;;;;;;;;;;24.70;39.50;;;;;;1566959;75;754;-72
2023/06/19 05:35:17;;;;;;;;;;;24.70;39.50;;;;;;1565220;76;754;-69
2023/06/19 05:37:19;;;;;;;;;;;24.70;39.50;;;;;;1562232;75;739;-72
2023/06/19 05:39:21;;;;;;;;;;;24.70;39.70;;;;;;1568522;75;828;-71
2023/06/19 05:41:23;;;;;;;;;;;24.80;39.40;;;;;;1569175;74;1202;-71
2023/06/19 05:43:27;;;;;;;;;;;24.80;39.20;;;;;;1565113;74;748;-71
2023/06/19 05:45:29;;;;;;;;;;;24.70;39.30;;;;;;1558325;75;750;-69
2023/06/19 05:47:31;;;;;;;;;;;24.70;39.40;;;;;;1567601;76;1935;-71
2023/06/19 05:49:33;;;;;;;;;;;24.70;39.60;;;;;;1564534;76;764;-70
2023/06/19 05:51:35;;;;;;;;;;;24.80;39.50;;;;;;1566842;74;1133;-72
2023/06/19 05:53:38;;;;;;;;;;;24.70;39.70;;;;;;1560761;75;788;-72
2023/06/19 05:55:40;;;;;;;;;;;24.70;39.70;;;;;;1567537;76;768;-72
2023/06/19 05:57:43;;;;;;;;;;;24.80;39.70;;;;;;1574332;74;757;-72
2023/06/19 05:59:44;;;;;;;;;;;24.80;39.70;;;;;;1560101;76;765;-73
2023/06/19 06:01:46;;;;;;;;;;;24.80;39.80;;;;;;1563309;74;2023;-75
2023/06/19 06:03:48;;;;;;;;;;;24.80;39.50;;;;;;1582085;73;800;-75
2023/06/19 06:05:50;;;;;;;;;;;24.80;39.40;;;;;;1609467;73;762;-76
2023/06/19 06:07:52;;;;;;;;;;;24.80;39.40;;;;;;1602192;73;1949;-75
2023/06/19 06:09:54;;;;;;;;;;;24.70;39.40;;;;;;1601951;73;787;-78
2023/06/19 06:11:56;;;;;;;;;;;24.70;39.70;;;;;;1588532;73;1270;-78
2023/06/19 06:13:58;;;;;;;;;;;24.80;39.60;;;;;;1587903;73;764;-78
2023/06/19 06:16:00;;;;;;;;;;;24.80;39.60;;;;;;1586574;73;778;-77
2023/06/19 06:18:03;;;;;;;;;;;24.80;39.70;;;;;;1582877;73;771;-77
2023/06/19 06:20:13;;;;;;;;;;;24.70;39.50;;;;;;1592248;73;769;-78
2023/06/19 06:22:08;;;;;;;;;;;24.70;39.50;;;;;;1588454;73;1384;-79
2023/06/19 06:24:10;;;;;;;;;;;24.70;39.50;;;;;;1564831;75;745;-78
2023/06/19 06:26:12;;;;;;;;;;;24.70;39.80;;;;;;1609054;73;790;-77
2023/06/19 06:28:14;;;;;;;;;;;24.70;39.90;;;;;;1588570;73;1942;-77
2023/06/19 06:30:17;;;;;;;;;;;24.70;39.60;;;;;;1592884;74;845;-77
2023/06/19 06:32:18;;;;;;;;;;;24.70;39.70;;;;;;1576723;73;1136;-78
2023/06/19 06:34:20;;;;;;;;;;;24.70;39.70;;;;;;1594118;73;775;-78
2023/06/19 06:36:22;;;;;;;;;;;24.70;39.90;;;;;;1582540;73;745;-76
2023/06/19 06:38:24;;;;;;;;;;;24.70;39.80;;;;;;1587342;73;713;-73
2023/06/19 06:40:27;;;;;;;;;;;24.80;39.70;;;;;;1586477;73;739;-73
2023/06/19 06:42:28;;;;;;;;;;;24.70;41.00;;;;;;1592599;74;736;-72
2023/06/19 06:44:30;;;;;;;;;;;24.70;41.40;;;;;;1589115;73;810;-74
2023/06/19 06:46:32;;;;;;;;;;;24.60;41.30;;;;;;1564494;74;641;-74
2023/06/19 06:48:34;;;;;;;;;;;24.80;41.00;;;;;;1576435;73;1939;-72
2023/06/19 06:50:36;;;;;;;;;;;24.80;40.70;;;;;;1578886;73;1183;-74
2023/06/19 06:52:38;;;;;;;;;;;24.90;40.40;;;;;;1577146;73;767;-74
2023/06/19 06:54:40;;;;;;;;;;;24.90;40.80;;;;;;1576128;73;764;-73
2023/06/19 06:56:42;;;;;;;;;;;25.00;40.60;;;;;;1578780;74;757;-74
2023/06/19 06:58:46;;;;;;;;;;;25.10;40.20;;;;;;1589353;73;669;-73
2023/06/19 07:00:47;;;;;;;;;;;25.20;39.90;;;;;;1592618;73;1571;-75
2023/06/19 07:02:50;;;;;;;;;;;25.40;39.70;;;;;;1598936;73;757;-70
2023/06/19 07:04:52;;;;;;;;;;;25.40;39.80;;;;;;1583087;73;1622;-74
2023/06/19 07:06:54;;;;;;;;;;;25.30;39.40;;;;;;1594012;73;806;-75
2023/06/19 07:08:56;;;;;;;;;;;25.30;39.50;;;;;;1594630;73;1957;-74
2023/06/19 07:10:57;;;;;;;;;;;25.20;39.80;;;;;;1559316;74;1188;-77
2023/06/19 07:12:59;;;;;;;;;;;25.20;39.90;;;;;;1607682;73;763;-70
2023/06/19 07:15:01;;;;;;;;;;;25.20;40.00;;;;;;1601982;73;766;-72
2023/06/19 07:17:05;;;;;;;;;;;25.10;40.00;;;;;;1606092;73;745;-73
2023/06/19 07:19:07;;;;;;;;;;;25.20;39.90;;;;;;1598777;73;1582;-77
2023/06/19 07:21:15;;;;;;;;;;;25.10;40.00;;;;;;1603141;72;1165;-74
2023/06/19 07:23:17;;;;;;;;;;;25.10;40.30;;;;;;1600365;73;512;-77
2023/06/19 07:25:19;;;;;;;;;;;25.20;40.40;;;;;;1592689;73;782;-72
2023/06/19 07:27:21;;;;;;;;;;;25.20;40.40;;;;;;1591189;73;774;-72
2023/06/19 07:29:25;;;;;;;;;;;25.30;40.30;;;;;;1591460;73;1925;-74
2023/06/19 07:31:27;;;;;;;;;;;25.30;40.20;;;;;;1587214;73;1181;-74
2023/06/19 07:33:33;;;;;;;;;;;25.50;40.00;;;;;;1587806;73;762;-74
2023/06/19 07:35:32;;;;;;;;;;;25.60;39.90;;;;;;1577821;73;798;-74
2023/06/19 07:37:34;;;;;;;;;;;25.70;39.50;;;;;;1584625;74;764;-74
2023/06/19 07:39:36;;;;;;;;;;;25.70;39.50;;;;;;1595997;73;796;-74
2023/06/19 07:41:38;;;;;;;;;;;25.70;39.60;;;;;;1585800;73;1246;-74
2023/06/19 07:43:40;;;;;;;;;;;25.80;39.20;;;;;;1590305;73;740;-74
2023/06/19 07:45:42;;;;;;;;;;;25.80;39.40;;;;;;1559236;74;739;-74
2023/06/19 07:47:43;;;;;;;;;;;25.80;39.80;;;;;;1565780;74;1931;-73
2023/06/19 07:49:45;;;;;;;;;;;25.70;39.40;;;;;;1586880;73;781;-75
2023/06/19 07:51:47;;;;;;;;;;;25.80;39.30;;;;;;1600259;73;1208;-75
2023/06/19 07:53:49;;;;;;;;;;;25.80;39.70;;;;;;1590275;73;788;-76
2023/06/19 07:55:53;;;;;;;;;;;25.90;39.40;;;;;;1599594;73;730;-75
2023/06/19 07:57:56;;;;;;;;;;;25.90;39.00;;;;;;1616544;73;1856;-74
2023/06/19 07:59:58;;;;;;;;;;;25.80;38.90;;;;;;1604253;73;1418;-73
2023/06/19 08:02:01;;;;;;;;;;;25.90;38.70;;;;;;1589962;73;1170;-76
2023/06/19 08:04:03;;;;;;;;;;;25.90;38.90;;;;;;1572106;74;497;-72
2023/06/19 08:06:04;;;;;;;;;;;25.90;39.00;;;;;;1609299;73;742;-74
2023/06/19 08:08:06;;;;;;;;;;;25.90;39.10;;;;;;1596570;73;1923;-76
2023/06/19 08:10:08;;;;;;;;;;;25.90;38.80;;;;;;1594725;73;796;-76
2023/06/19 08:12:10;;;;;;;;;;;25.80;39.10;;;;;;1582694;73;1173;-73
2023/06/19 08:14:12;;;;;;;;;;;25.70;39.30;;;;;;1588821;73;816;-73
2023/06/19 08:16:14;;;;;;;;;;;25.70;39.60;;;;;;1586372;73;770;-72
2023/06/19 08:18:17;;;;;;;;;;;25.70;39.40;;;;;;1592950;73;745;-73
2023/06/19 08:20:19;;;;;;;;;;;25.70;39.00;;;;;;1586223;73;740;-73
2023/06/19 08:22:21;;;;;;;;;;;25.80;38.90;;;;;;1594204;73;1131;-74
2023/06/19 08:24:24;;;;;;;;;;;25.70;39.10;;;;;;1565334;75;774;-73
2023/06/19 08:26:26;;;;;;;;;;;25.70;39.20;;;;;;1592776;74;800;-74
2023/06/19 08:28:28;;;;;;;;;;;25.60;39.20;;;;;;1594739;73;1952;-75
2023/06/19 08:30:30;;;;;;;;;;;25.60;39.40;;;;;;1586877;73;1200;-76
2023/06/19 08:32:33;;;;;;;;;;;25.70;39.40;;;;;;1583611;74;697;-73
2023/06/19 08:34:34;;;;;;;;;;;25.60;39.20;;;;;;1582763;73;783;-74
2023/06/19 08:36:36;;;;;;;;;;;25.60;39.60;;;;;;1569036;74;767;-73
2023/06/19 08:38:38;;;;;;;;;;;25.70;39.40;;;;;;1568763;74;790;-73
2023/06/19 08:40:42;;;;;;;;;;;25.50;39.10;;;;;;1590548;73;1171;-74
2023/06/19 08:42:44;;;;;;;;;;;25.60;39.10;;;;;;1591063;73;724;-72
2023/06/19 08:44:45;;;;;;;;;;;25.60;39.80;;;;;;1592099;73;641;-73
2023/06/19 08:46:47;;;;;;;;;;;25.50;39.30;;;;;;1587401;73;927;-75
2023/06/19 08:48:49;;;;;;;;;;;25.60;39.60;;;;;;1596649;73;1929;-73
2023/06/19 08:50:51;;;;;;;;;;;25.50;39.40;;;;;;1590922;73;1324;-76
2023/06/19 08:52:53;;;;;;;;;;;25.50;39.40;;;;;;1580242;74;684;-73
2023/06/19 08:54:55;;;;;;;;;;;25.60;39.40;;;;;;1577034;73;793;-76
2023/06/19 08:56:58;;;;;;;;;;;25.50;39.30;;;;;;1614071;73;1207;-74
2023/06/19 08:59:17;;;;;;;;;;;25.50;39.40;;;;;;1604475;73;1125;-77
2023/06/19 09:01:23;;;;;;;;;;;25.50;39.30;;;;;;1611172;72;1153;-76
2023/06/19 09:03:22;;;;;;;;;;;25.60;39.40;;;;;;1599918;73;1084;-76
2023/06/19 09:05:25;;;;;;;;;;;25.60;39.60;;;;;;1612416;73;784;-76
2023/06/19 09:07:27;;;;;;;;;;;25.50;39.60;;;;;;1608423;73;790;-76
2023/06/19 09:09:29;;;;;;;;;;;25.60;39.60;;;;;;1605068;73;1935;-76
2023/06/19 09:11:30;;;;;;;;;;;25.60;39.60;;;;;;1610675;73;1175;-77
2023/06/19 09:13:32;;;;;;;;;;;25.60;39.70;;;;;;1608528;73;796;-77
2023/06/19 09:15:35;;;;;;;;;;;25.60;39.70;;;;;;1597942;73;753;-76
2023/06/19 09:17:37;;;;;;;;;;;25.70;39.70;;;;;;1604122;73;802;-76
2023/06/19 09:19:39;;;;;;;;;;;25.70;39.70;;;;;;1605052;73;722;-76
2023/06/19 09:21:41;;;;;;;;;;;25.70;39.80;;;;;;1600438;73;1178;-76
2023/06/19 09:23:43;;;;;;;;;;;25.70;39.40;;;;;;1611602;73;739;-76
2023/06/19 09:25:53;;;;;;;;;;;25.80;39.30;;;;;;1605579;73;785;-77
2023/06/19 09:27:55;;;;;;;;;;;25.90;39.30;;;;;;1613279;73;984;-76
2023/06/19 09:29:57;;;;;;;;;;;25.70;39.40;;;;;;1607159;73;1923;-75
2023/06/19 09:31:59;;;;;;;;;;;25.70;39.40;;;;;;1593198;73;1170;-76
2023/06/19 09:34:00;;;;;;;;;;;25.80;39.40;;;;;;1589186;73;769;-76
2023/06/19 09:36:03;;;;;;;;;;;25.80;39.30;;;;;;1612792;73;758;-77
2023/06/19 09:38:05;;;;;;;;;;;25.70;39.20;;;;;;1594983;73;757;-76
2023/06/19 09:40:10;;;;;;;;;;;25.80;39.30;;;;;;1614648;73;757;-76
2023/06/19 09:42:12;;;;;;;;;;;25.60;39.40;;;;;;1585038;73;1129;-72
2023/06/19 09:44:14;;;;;;;;;;;25.70;39.70;;;;;;1572645;74;769;-76
2023/06/19 09:46:16;;;;;;;;;;;25.70;39.70;;;;;;1597118;73;765;-76
2023/06/19 09:48:19;;;;;;;;;;;25.80;39.50;;;;;;1602524;73;1944;-78
2023/06/19 09:50:22;;;;;;;;;;;25.80;39.50;;;;;;1615962;73;746;-75
2023/06/19 09:52:24;;;;;;;;;;;25.80;39.40;;;;;;1609160;73;1458;-76
2023/06/19 09:54:26;;;;;;;;;;;25.80;39.40;;;;;;1596040;73;736;-77
2023/06/19 09:56:27;;;;;;;;;;;25.80;39.30;;;;;;1604047;73;758;-76
2023/06/19 09:58:29;;;;;;;;;;;25.90;39.40;;;;;;1603240;73;771;-77
2023/06/19 10:00:32;;;;;;;;;;;25.80;39.30;;;;;;1588446;73;1143;-76
2023/06/19 10:02:34;;;;;;;;;;;25.80;39.60;;;;;;1601009;72;764;-76
2023/06/19 10:04:45;;;;;;;;;;;25.80;39.60;;;;;;1612057;73;810;-76
2023/06/19 10:06:48;;;;;;;;;;;25.80;39.80;;;;;;1608173;73;978;-76
2023/06/19 10:08:51;;;;;;;;;;;25.90;39.70;;;;;;1616195;73;1928;-76
2023/06/19 10:10:54;;;;;;;;;;;25.90;40.00;;;;;;1614421;73;1190;-76
2023/06/19 10:12:57;;;;;;;;;;;25.80;39.80;;;;;;1599298;73;791;-76
2023/06/19 10:15:01;;;;;;;;;;;25.80;39.00;;;;;;1591705;73;787;-77
2023/06/19 10:17:04;;;;;;;;;;;25.80;39.70;;;;;;1614366;73;1177;-77
2023/06/19 10:19:16;;;;;;;;;;;25.70;39.80;;;;;;1597124;73;1217;-76
2023/06/19 10:21:18;;;;;;;;;;;25.70;39.50;;;;;;1599272;73;1158;-77
2023/06/19 10:23:22;;;;;;;;;;;25.70;39.80;;;;;;1608212;73;787;-77
2023/06/19 10:25:24;;;;;;;;;;;25.80;39.60;;;;;;1610767;73;743;-76
2023/06/19 10:27:26;;;;;;;;;;;25.80;39.50;;;;;;1607767;73;754;-76
2023/06/19 10:29:30;;;;;;;;;;;25.70;39.50;;;;;;1605328;73;1924;-75
2023/06/19 10:31:32;;;;;;;;;;;25.70;39.80;;;;;;1587778;73;1124;-77
2023/06/19 10:33:34;;;;;;;;;;;25.70;39.70;;;;;;1599130;73;735;-77
2023/06/19 10:35:39;;;;;;;;;;;25.70;39.90;;;;;;1618314;73;813;-77
2023/06/19 10:37:43;;;;;;;;;;;25.70;39.70;;;;;;1611785;73;731;-76
2023/06/19 10:39:45;;;;;;;;;;;25.70;39.70;;;;;;1614019;73;767;-76
2023/06/19 10:41:47;;;;;;;;;;;25.70;39.70;;;;;;1582698;73;1177;-77
2023/06/19 10:43:56;;;;;;;;;;;25.60;39.80;;;;;;1594968;73;773;-73
2023/06/19 10:46:02;;;;;;;;;;;25.70;39.80;;;;;;1603283;73;672;-77
2023/06/19 10:48:02;;;;;;;;;;;25.60;39.80;;;;;;1612713;73;1403;-76
2023/06/19 10:50:04;;;;;;;;;;;25.60;39.80;;;;;;1601294;73;1919;-76
2023/06/19 10:52:07;;;;;;;;;;;25.70;39.80;;;;;;1592692;73;1216;-77
2023/06/19 10:54:09;;;;;;;;;;;25.70;39.80;;;;;;1598035;73;792;-77
2023/06/19 10:56:11;;;;;;;;;;;25.70;39.80;;;;;;1612710;73;750;-77
2023/06/19 10:58:13;;;;;;;;;;;25.70;39.80;;;;;;1609073;73;694;-77
2023/06/19 11:00:27;;;;;;;;;;;25.60;39.80;;;;;;1607611;73;779;-77
2023/06/19 11:02:29;;;;;;;;;;;25.70;39.80;;;;;;1599819;73;747;-76
2023/06/19 11:04:31;;;;;;;;;;;25.70;39.70;;;;;;1609003;73;755;-76
2023/06/19 11:06:33;;;;;;;;;;;25.60;39.50;;;;;;1613323;73;750;-77
2023/06/19 11:08:35;;;;;;;;;;;25.70;39.40;;;;;;1616657;72;772;-76
2023/06/19 11:10:37;;;;;;;;;;;25.70;39.20;;;;;;1615557;73;1972;-77
2023/06/19 11:12:39;;;;;;;;;;;25.70;39.20;;;;;;1599596;73;800;-77
2023/06/19 11:14:42;;;;;;;;;;;25.70;39.20;;;;;;1617018;73;758;-77
2023/06/19 11:16:45;;;;;;;;;;;25.60;39.20;;;;;;1607651;73;741;-74
2023/06/19 11:18:46;;;;;;;;;;;25.60;39.20;;;;;;1615839;73;790;-76
2023/06/19 11:20:51;;;;;;;;;;;25.70;39.30;;;;;;1610184;73;1160;-76
2023/06/19 11:22:58;;;;;;;;;;;25.70;39.40;;;;;;1599411;73;785;-77
2023/06/19 11:25:01;;;;;;;;;;;25.60;39.40;;;;;;1598773;73;941;-77
2023/06/19 11:27:04;;;;;;;;;;;25.60;39.50;;;;;;1607540;73;1128;-76
2023/06/19 11:29:08;;;;;;;;;;;25.60;39.70;;;;;;1598296;73;1931;-76
2023/06/19 11:31:10;;;;;;;;;;;25.60;39.70;;;;;;1599744;73;1155;-77
2023/06/19 11:33:24;;;;;;;;;;;25.60;39.80;;;;;;1591043;73;756;-76
2023/06/19 11:35:28;;;;;;;;;;;25.60;39.80;;;;;;1611038;73;703;-76
2023/06/19 11:37:29;;;;;;;;;;;25.60;39.80;;;;;;1590015;73;1634;-76
2023/06/19 11:39:31;;;;;;;;;;;25.60;40.00;;;;;;1614358;73;764;-76
2023/06/19 11:41:33;;;;;;;;;;;25.60;39.90;;;;;;1614317;73;1169;-76
2023/06/19 11:43:35;;;;;;;;;;;25.60;39.90;;;;;;1594419;74;1150;-76
2023/06/19 11:45:41;;;;;;;;;;;25.60;39.90;;;;;;1616373;73;1432;-77
2023/06/19 11:47:44;;;;;;;;;;;25.60;39.90;;;;;;1589535;73;1547;-76
2023/06/19 11:49:48;;;;;;;;;;;25.60;39.90;;;;;;1598942;73;1922;-76
2023/06/19 11:51:50;;;;;;;;;;;25.60;39.80;;;;;;1601541;73;1217;-78
2023/06/19 11:53:52;;;;;;;;;;;25.60;39.80;;;;;;1593536;73;788;-76
2023/06/19 11:55:53;;;;;;;;;;;25.60;39.70;;;;;;1599541;74;806;-76
2023/06/19 11:57:55;;;;;;;;;;;25.60;39.80;;;;;;1605937;73;804;-76
2023/06/19 11:59:57;;;;;;;;;;;25.60;39.80;;;;;;1608046;73;702;-74
2023/06/19 12:01:59;;;;;;;;;;;25.60;39.80;;;;;;1567691;72;2031;-77
2023/06/19 12:04:01;;;;;;;;;;;25.60;39.80;;;;;;1525479;76;747;-75
2023/06/19 12:06:03;;;;;;;;;;;25.60;39.80;;;;;;1541948;76;774;-75
2023/06/19 12:08:06;;;;;;;;;;;25.60;39.70;;;;;;1534377;76;769;-75
2023/06/19 12:10:09;;;;;;;;;;;25.60;39.70;;;;;;1528455;76;1945;-75